Time;durP1;ratioP1;P1;durP2;ratioP2;P2;SDS_P1;SDS_P2;PMS_P1;PMS_P2;Temp;Humidity;BMP_temperature;BMP_pressure;BME280_temperature;BME280_humidity;BME280_pressure;Samples;Min_cycle;Max_cycle;Signal;HPM_P1;HPM_P2
2022/01/10 00:00:54;;;;;;;1.65;0.85;;;5.90;96.70;;;;;;4914984;29;20355;-71
2022/01/10 00:03:25;;;;;;;1.05;0.65;;;5.90;96.70;;;;;;4917347;29;20107;-71
2022/01/10 00:05:52;;;;;;;2.65;1.00;;;5.90;96.70;;;;;;4902969;29;20031;-71
2022/01/10 00:08:21;;;;;;;2.28;1.00;;;5.80;96.70;;;;;;4899634;29;20486;-72
2022/01/10 00:10:50;;;;;;;1.17;0.80;;;5.80;96.70;;;;;;4905548;29;20535;-72
2022/01/10 00:13:19;;;;;;;1.45;0.80;;;5.80;96.70;;;;;;4913400;29;20052;-72
2022/01/10 00:15:47;;;;;;;1.42;0.70;;;5.90;96.70;;;;;;4920495;29;20048;-72
2022/01/10 00:18:15;;;;;;;3.25;1.00;;;5.90;96.70;;;;;;4918716;29;20048;-72
2022/01/10 00:20:44;;;;;;;1.38;0.70;;;5.90;96.70;;;;;;4897184;29;20095;-72
2022/01/10 00:23:12;;;;;;;1.85;0.90;;;5.90;96.70;;;;;;4915720;29;20040;-71
2022/01/10 00:25:40;;;;;;;1.88;1.02;;;5.90;96.70;;;;;;4900747;29;20044;-72
2022/01/10 00:28:08;;;;;;;1.30;0.68;;;5.90;96.70;;;;;;4919941;29;20470;-72
2022/01/10 00:30:36;;;;;;;1.25;0.60;;;5.80;96.70;;;;;;4904500;29;20058;-72
2022/01/10 00:33:04;;;;;;;1.20;0.63;;;5.70;96.70;;;;;;4899747;29;20051;-72
2022/01/10 00:35:32;;;;;;;1.55;0.75;;;5.70;96.70;;;;;;4922013;29;20083;-72
2022/01/10 00:38:02;;;;;;;1.63;0.85;;;5.60;96.70;;;;;;4897067;29;20040;-71
2022/01/10 00:40:30;;;;;;;0.60;0.43;;;5.60;96.70;;;;;;4896393;29;20091;-72
2022/01/10 00:42:58;;;;;;;1.02;0.30;;;5.70;96.70;;;;;;4900839;29;20494;-72
2022/01/10 00:45:28;;;;;;;1.40;0.70;;;5.70;96.70;;;;;;4881721;29;20470;-72
2022/01/10 00:47:57;;;;;;;1.15;0.50;;;5.70;96.70;;;;;;4899469;29;20490;-72
2022/01/10 00:50:26;;;;;;;1.25;0.68;;;5.70;96.70;;;;;;4895357;29;21431;-72
2022/01/10 00:52:55;;;;;;;0.90;0.80;;;5.70;96.70;;;;;;4898658;29;20471;-71
2022/01/10 00:55:25;;;;;;;1.45;0.80;;;5.60;96.70;;;;;;4904693;29;20051;-72
2022/01/10 00:57:53;;;;;;;1.10;0.85;;;5.60;96.70;;;;;;4900956;29;20036;-71
2022/01/10 01:00:21;;;;;;;1.08;0.60;;;5.70;96.70;;;;;;4886033;29;20052;-72
2022/01/10 01:02:49;;;;;;;0.82;0.55;;;5.70;96.70;;;;;;4916340;29;20044;-72
2022/01/10 01:05:20;;;;;;;0.93;0.50;;;5.70;96.70;;;;;;4912826;29;20128;-72
2022/01/10 01:07:48;;;;;;;1.00;0.63;;;5.80;96.70;;;;;;4901329;29;20039;-72
2022/01/10 01:10:51;;;;;;;0.85;0.40;;;5.90;96.70;;;;;;4904668;29;20059;-72
2022/01/10 01:13:27;;;;;;;1.52;0.70;;;5.90;96.70;;;;;;4921781;29;20482;-72
2022/01/10 01:24:03;;;;;;;1.33;0.50;;;5.80;96.70;;;;;;4916680;29;20147;-71
2022/01/10 01:26:33;;;;;;;1.45;0.95;;;5.80;96.70;;;;;;4906260;29;20055;-73
2022/01/10 01:29:03;;;;;;;1.50;0.80;;;5.80;96.70;;;;;;4901115;29;20055;-72
2022/01/10 01:31:32;;;;;;;1.02;0.70;;;5.90;96.70;;;;;;4898779;29;20048;-71
2022/01/10 01:34:00;;;;;;;1.90;0.90;;;6.00;96.70;;;;;;4902074;29;20040;-73
2022/01/10 01:36:30;;;;;;;1.70;0.95;;;5.90;96.70;;;;;;4917687;29;20406;-73
2022/01/10 01:38:58;;;;;;;1.70;1.23;;;5.90;96.70;;;;;;4900841;29;20052;-73
2022/01/10 01:43:55;;;;;;;2.38;0.85;;;5.90;96.70;;;;;;4912174;29;20135;-73
2022/01/10 01:46:25;;;;;;;1.65;0.73;;;6.00;96.70;;;;;;4913832;29;20449;-73
2022/01/10 01:48:54;;;;;;;1.55;0.60;;;6.00;96.70;;;;;;4918243;29;20087;-73
2022/01/10 01:51:26;;;;;;;1.27;0.52;;;5.90;96.70;;;;;;4902415;29;20054;-73
2022/01/10 01:53:54;;;;;;;1.08;0.70;;;6.00;96.70;;;;;;4901771;29;20122;-73
2022/01/10 01:56:22;;;;;;;1.27;0.80;;;6.00;96.70;;;;;;4917901;29;20070;-74
2022/01/10 01:58:54;;;;;;;0.98;0.60;;;5.90;96.70;;;;;;4887593;29;20130;-73
2022/01/10 02:01:25;;;;;;;2.58;0.90;;;6.00;96.70;;;;;;4900839;29;20056;-73
2022/01/10 02:03:54;;;;;;;1.25;0.60;;;5.80;96.70;;;;;;4915441;29;20076;-74
2022/01/10 02:06:27;;;;;;;1.08;0.52;;;5.80;96.70;;;;;;4913952;29;20192;-73
2022/01/10 02:08:55;;;;;;;0.93;0.50;;;5.80;96.70;;;;;;4916043;29;20430;-73
2022/01/10 02:11:24;;;;;;;1.35;0.60;;;5.80;96.70;;;;;;4900227;29;20052;-73
2022/01/10 02:13:53;;;;;;;0.90;0.65;;;5.90;96.70;;;;;;4899291;29;20052;-73
2022/01/10 02:16:42;;;;;;;0.90;0.60;;;5.90;96.70;;;;;;4900368;29;20052;-73
2022/01/10 02:19:19;;;;;;;0.90;0.68;;;5.90;96.70;;;;;;4898647;29;20507;-73
2022/01/10 02:21:48;;;;;;;0.95;0.60;;;5.90;96.70;;;;;;4899125;29;20067;-73
2022/01/10 02:24:16;;;;;;;1.00;0.63;;;5.70;96.70;;;;;;4900094;29;20052;-73
2022/01/10 02:26:48;;;;;;;0.80;0.50;;;5.70;96.70;;;;;;4885448;29;20580;-73
2022/01/10 02:29:16;;;;;;;1.58;0.43;;;5.70;96.70;;;;;;4932375;28;20051;-73
2022/01/10 02:31:44;;;;;;;1.52;0.80;;;5.70;96.70;;;;;;4910770;29;20042;-73
2022/01/10 02:34:18;;;;;;;1.33;0.57;;;5.70;96.70;;;;;;4896906;29;20040;-73
2022/01/10 02:36:46;;;;;;;1.13;0.60;;;5.70;96.70;;;;;;4919856;29;20509;-73
2022/01/10 02:39:19;;;;;;;1.00;0.68;;;5.70;96.70;;;;;;4889077;29;20581;-71
2022/01/10 02:41:47;;;;;;;1.10;0.70;;;5.60;96.70;;;;;;4901107;29;20078;-72
2022/01/10 02:44:17;;;;;;;2.15;0.90;;;5.60;96.70;;;;;;4921454;29;20047;-72
2022/01/10 02:46:46;;;;;;;1.10;0.60;;;5.50;96.70;;;;;;4915968;29;20058;-72
2022/01/10 02:49:30;;;;;;;1.33;0.68;;;5.50;96.70;;;;;;4910479;29;20044;-71
2022/01/10 02:51:59;;;;;;;1.85;1.02;;;5.50;96.70;;;;;;4918288;29;20044;-71
2022/01/10 02:54:30;;;;;;;2.90;1.20;;;5.40;96.70;;;;;;4900898;29;20142;-71
2022/01/10 02:57:02;;;;;;;1.08;0.98;;;5.40;96.70;;;;;;4901073;29;20059;-71
2022/01/10 02:59:30;;;;;;;1.20;0.85;;;5.40;96.70;;;;;;4897501;29;20055;-71
2022/01/10 03:01:58;;;;;;;1.65;0.90;;;5.50;96.70;;;;;;4915775;29;20527;-72
2022/01/10 03:04:27;;;;;;;2.55;1.25;;;5.60;96.70;;;;;;4903342;29;20048;-71
2022/01/10 03:06:55;;;;;;;1.25;0.77;;;5.60;96.70;;;;;;4902118;29;20510;-71
2022/01/10 03:09:23;;;;;;;0.70;0.45;;;5.50;96.70;;;;;;4896487;29;20063;-71
2022/01/10 03:11:53;;;;;;;0.20;0.20;;;5.60;96.70;;;;;;4912545;29;20526;-72
2022/01/10 03:14:21;;;;;;;0.17;0.10;;;5.80;96.70;;;;;;4883316;29;20058;-71
2022/01/10 03:16:49;;;;;;;0.30;0.10;;;6.00;96.70;;;;;;4906303;29;20489;-71
2022/01/10 03:19:17;;;;;;;0.38;0.10;;;6.20;96.70;;;;;;4896125;29;20556;-71
2022/01/10 03:21:45;;;;;;;0.47;0.10;;;6.30;96.70;;;;;;4887118;29;20036;-72
2022/01/10 03:24:13;;;;;;;0.13;0.10;;;6.40;96.70;;;;;;4911241;29;20547;-71
2022/01/10 03:26:42;;;;;;;0.00;0.00;;;6.50;96.70;;;;;;4898066;29;20342;-71
2022/01/10 03:29:13;;;;;;;1.40;0.20;;;6.50;96.70;;;;;;4901901;29;20035;-71
2022/01/10 03:31:41;;;;;;;0.17;0.10;;;6.60;96.70;;;;;;4915886;29;20389;-72
2022/01/10 03:34:12;;;;;;;0.17;0.10;;;6.60;96.70;;;;;;4913743;29;20497;-71
2022/01/10 03:36:41;;;;;;;0.20;0.10;;;6.70;96.70;;;;;;4900421;29;20754;-71
2022/01/10 03:39:10;;;;;;;0.10;0.03;;;6.70;96.70;;;;;;4895248;29;20090;-72
2022/01/10 03:41:39;;;;;;;0.40;0.20;;;6.70;96.70;;;;;;4917343;29;20529;-71
2022/01/10 03:44:08;;;;;;;0.95;0.20;;;6.70;96.70;;;;;;4903875;29;20418;-71
2022/01/10 03:46:37;;;;;;;0.43;0.20;;;6.80;96.70;;;;;;4916898;29;20046;-72
2022/01/10 03:49:06;;;;;;;0.32;0.10;;;6.80;96.70;;;;;;4911895;29;20058;-71
2022/01/10 03:51:35;;;;;;;0.30;0.10;;;6.80;96.70;;;;;;4897470;29;20048;-71
2022/01/10 03:54:03;;;;;;;1.10;0.35;;;6.80;96.70;;;;;;4904263;29;20532;-71
2022/01/10 03:56:31;;;;;;;1.13;0.20;;;6.90;96.70;;;;;;4885205;29;20596;-72
2022/01/10 03:59:04;;;;;;;0.85;0.20;;;6.80;96.70;;;;;;4886673;29;20135;-72
2022/01/10 04:01:32;;;;;;;0.57;0.20;;;6.90;96.70;;;;;;4901995;29;20050;-71
2022/01/10 04:04:02;;;;;;;2.50;0.20;;;6.80;96.70;;;;;;4901267;29;20414;-72
2022/01/10 04:06:30;;;;;;;0.35;0.20;;;6.80;96.70;;;;;;4901366;29;20506;-71
2022/01/10 04:08:58;;;;;;;1.88;0.30;;;6.70;96.70;;;;;;4900367;29;20522;-71
2022/01/10 04:11:28;;;;;;;0.60;0.25;;;6.60;96.70;;;;;;4903389;29;20545;-72
2022/01/10 04:13:56;;;;;;;0.63;0.20;;;6.60;96.70;;;;;;4886667;29;20059;-72
2022/01/10 04:16:25;;;;;;;0.52;0.20;;;6.50;96.70;;;;;;4899395;29;20050;-72
2022/01/10 04:18:54;;;;;;;0.40;0.20;;;6.50;96.70;;;;;;4901114;29;20506;-71
2022/01/10 04:21:23;;;;;;;0.52;0.20;;;6.50;96.70;;;;;;4930426;28;20126;-71
2022/01/10 04:23:51;;;;;;;0.65;0.20;;;6.50;96.70;;;;;;4902577;29;20062;-72
2022/01/10 04:26:22;;;;;;;0.38;0.13;;;6.50;96.70;;;;;;4895961;29;20044;-72
2022/01/10 04:28:50;;;;;;;0.45;0.20;;;6.60;96.70;;;;;;4905619;29;20090;-72
2022/01/10 04:31:18;;;;;;;0.40;0.20;;;6.60;96.70;;;;;;4896103;29;20126;-72
2022/01/10 04:33:47;;;;;;;0.82;0.40;;;6.50;96.70;;;;;;4896756;29;20055;-72
2022/01/10 04:36:15;;;;;;;0.82;0.10;;;6.50;96.70;;;;;;4911035;29;20126;-72
2022/01/10 04:38:46;;;;;;;0.82;0.60;;;6.50;96.70;;;;;;4899760;29;20142;-72
2022/01/10 04:41:17;;;;;;;1.38;0.30;;;6.50;96.70;;;;;;4898946;29;20047;-72
2022/01/10 04:43:45;;;;;;;0.45;0.20;;;6.50;96.70;;;;;;4903120;29;20035;-71
2022/01/10 04:46:14;;;;;;;1.10;0.22;;;6.50;96.70;;;;;;4891401;29;20529;-72
2022/01/10 04:48:43;;;;;;;0.80;0.57;;;6.50;96.70;;;;;;4902858;29;20091;-72
2022/01/10 04:51:16;;;;;;;1.77;0.60;;;6.40;96.70;;;;;;4917514;29;20055;-72
2022/01/10 04:53:50;;;;;;;0.70;0.40;;;6.40;96.70;;;;;;4887571;29;20410;-72
2022/01/10 04:56:20;;;;;;;2.28;0.30;;;6.30;96.70;;;;;;4890862;29;20052;-72
2022/01/10 04:58:51;;;;;;;0.75;0.28;;;6.40;96.70;;;;;;4900616;29;20048;-72
2022/01/10 05:01:21;;;;;;;0.47;0.20;;;6.30;96.70;;;;;;4899655;29;20040;-72
2022/01/10 05:03:52;;;;;;;0.65;0.38;;;6.30;96.70;;;;;;4900478;29;20163;-72
2022/01/10 05:06:21;;;;;;;1.75;0.30;;;6.30;96.70;;;;;;4903200;29;20054;-72
2022/01/10 05:08:52;;;;;;;0.30;0.20;;;6.30;96.70;;;;;;4899266;29;20418;-72
2022/01/10 05:11:38;;;;;;;0.60;0.38;;;6.30;96.70;;;;;;4900696;29;20064;-72
2022/01/10 05:14:06;;;;;;;0.88;0.40;;;6.20;96.70;;;;;;4886727;29;20598;-72
2022/01/10 05:16:35;;;;;;;0.52;0.40;;;6.10;96.70;;;;;;4904014;29;20048;-71
2022/01/10 05:19:03;;;;;;;1.25;0.60;;;6.00;96.70;;;;;;4890184;29;20060;-71
2022/01/10 05:21:31;;;;;;;1.05;0.57;;;6.00;96.70;;;;;;4892384;29;20044;-72
2022/01/10 05:24:00;;;;;;;2.67;0.50;;;5.90;96.70;;;;;;4905961;29;20142;-72
2022/01/10 05:26:31;;;;;;;1.10;0.50;;;5.90;96.70;;;;;;4922282;29;20083;-72
2022/01/10 05:29:01;;;;;;;1.48;0.50;;;5.90;96.70;;;;;;4912849;29;20050;-72
2022/01/10 05:31:29;;;;;;;1.88;0.80;;;5.90;96.70;;;;;;4916983;29;20051;-72
2022/01/10 05:34:09;;;;;;;1.17;0.30;;;5.90;96.70;;;;;;4890740;29;20493;-72
2022/01/10 05:36:37;;;;;;;0.88;0.43;;;5.90;96.70;;;;;;4921449;29;20230;-72
2022/01/10 05:39:07;;;;;;;2.97;0.70;;;5.90;96.70;;;;;;4916741;29;20525;-72
2022/01/10 05:41:36;;;;;;;0.70;0.60;;;5.80;96.70;;;;;;4905308;29;20048;-71
2022/01/10 05:44:05;;;;;;;1.58;0.60;;;5.80;96.70;;;;;;4888454;29;20074;-71
2022/01/10 05:46:38;;;;;;;1.77;0.73;;;5.70;96.70;;;;;;4914107;29;20048;-71
2022/01/10 05:49:08;;;;;;;1.88;0.60;;;5.60;96.70;;;;;;4896228;29;20051;-71
2022/01/10 05:51:36;;;;;;;2.40;1.00;;;5.60;96.70;;;;;;4881643;29;20054;-71
2022/01/10 05:54:24;;;;;;;1.80;0.90;;;5.60;96.70;;;;;;4907121;29;20134;-71
2022/01/10 05:56:53;;;;;;;1.60;0.90;;;5.50;96.70;;;;;;4900794;29;20058;-71
2022/01/10 05:59:23;;;;;;;2.22;0.82;;;5.60;96.70;;;;;;4895891;29;20157;-71
2022/01/10 06:01:52;;;;;;;4.60;1.10;;;5.60;96.70;;;;;;4900946;29;20055;-71
2022/01/10 06:04:24;;;;;;;3.08;1.00;;;5.60;96.70;;;;;;4901313;29;20444;-71
2022/01/10 06:06:52;;;;;;;2.13;1.45;;;5.50;96.70;;;;;;4901459;29;20044;-71
2022/01/10 06:09:20;;;;;;;2.47;1.52;;;5.40;96.70;;;;;;4900085;29;20040;-71
2022/01/10 06:11:50;;;;;;;4.03;1.55;;;5.40;96.70;;;;;;4908613;29;20055;-71
2022/01/10 06:14:18;;;;;;;3.03;1.70;;;5.30;96.70;;;;;;4905063;29;20067;-71
2022/01/10 06:16:49;;;;;;;3.22;2.25;;;5.30;96.70;;;;;;4895844;29;20379;-71
2022/01/10 06:19:17;;;;;;;4.78;2.28;;;5.20;96.70;;;;;;4898495;29;20521;-71
2022/01/10 06:21:46;;;;;;;2.97;2.08;;;5.10;96.70;;;;;;4885378;29;20052;-71
2022/01/10 06:24:14;;;;;;;5.45;1.80;;;5.10;96.70;;;;;;4908779;29;20040;-71
2022/01/10 06:26:45;;;;;;;4.85;1.77;;;5.10;96.70;;;;;;4887287;29;20671;-72
2022/01/10 06:29:15;;;;;;;2.35;1.70;;;5.10;96.70;;;;;;4903738;29;20546;-71
2022/01/10 06:31:43;;;;;;;2.65;1.52;;;5.00;96.70;;;;;;4929838;28;20055;-71
2022/01/10 06:34:19;;;;;;;2.65;1.65;;;5.00;96.70;;;;;;4918400;29;20052;-71
2022/01/10 06:36:47;;;;;;;2.28;1.25;;;5.00;96.70;;;;;;4904965;29;20382;-71
2022/01/10 06:39:17;;;;;;;2.13;1.23;;;5.10;96.70;;;;;;4891363;29;20405;-71
2022/01/10 06:41:47;;;;;;;2.30;1.50;;;5.10;96.70;;;;;;4900751;29;20282;-71
2022/01/10 06:44:17;;;;;;;1.15;1.00;;;5.20;96.70;;;;;;4903771;29;20143;-71
2022/01/10 06:46:45;;;;;;;3.10;1.95;;;5.30;96.70;;;;;;4896301;29;20039;-71
2022/01/10 06:49:14;;;;;;;4.57;1.33;;;5.20;96.70;;;;;;4902084;29;20054;-71
2022/01/10 06:51:43;;;;;;;1.92;1.45;;;5.20;96.70;;;;;;4898282;29;20560;-71
2022/01/10 06:54:11;;;;;;;3.83;2.03;;;5.30;96.70;;;;;;4896510;29;20047;-71
2022/01/10 06:56:46;;;;;;;7.80;3.70;;;5.30;96.70;;;;;;4913466;29;20056;-72
2022/01/10 06:59:16;;;;;;;5.00;2.78;;;5.30;96.70;;;;;;4906891;29;20052;-71
2022/01/10 07:01:47;;;;;;;11.20;3.78;;;5.20;96.70;;;;;;4901188;29;20044;-71
2022/01/10 07:04:18;;;;;;;5.75;2.85;;;5.20;96.70;;;;;;4902954;29;20044;-71
2022/01/10 07:06:46;;;;;;;3.08;2.20;;;5.20;96.70;;;;;;4900304;29;20051;-71
2022/01/10 07:09:21;;;;;;;6.43;2.03;;;5.10;96.70;;;;;;4897098;29;20047;-71
2022/01/10 07:12:07;;;;;;;5.38;2.50;;;5.10;96.70;;;;;;4883958;29;20056;-72
2022/01/10 07:14:46;;;;;;;2.47;1.42;;;5.20;96.70;;;;;;4888323;29;20048;-71
2022/01/10 07:17:16;;;;;;;2.30;1.33;;;5.30;96.70;;;;;;4917940;29;20051;-71
2022/01/10 07:19:44;;;;;;;3.00;1.35;;;5.30;96.70;;;;;;4896633;29;20510;-71
2022/01/10 07:22:19;;;;;;;4.38;1.20;;;5.40;96.70;;;;;;4897463;29;20043;-71
2022/01/10 07:24:47;;;;;;;2.05;1.00;;;5.40;96.70;;;;;;4900516;29;20039;-71
2022/01/10 07:27:15;;;;;;;1.88;1.30;;;5.50;96.70;;;;;;4900505;29;20121;-71
2022/01/10 07:29:45;;;;;;;2.70;1.10;;;5.60;96.70;;;;;;4899563;29;20489;-71
2022/01/10 07:32:15;;;;;;;2.25;0.82;;;5.70;96.70;;;;;;4898810;29;20056;-71
2022/01/10 07:34:43;;;;;;;1.70;0.70;;;5.90;96.70;;;;;;4918176;29;20044;-71
2022/01/10 07:37:11;;;;;;;1.50;0.55;;;6.00;96.70;;;;;;4898144;29;20067;-71
2022/01/10 07:39:40;;;;;;;2.92;0.80;;;6.00;96.70;;;;;;4897840;29;20051;-71
2022/01/10 07:42:08;;;;;;;1.58;0.40;;;6.10;96.70;;;;;;4914873;29;20087;-71
2022/01/10 07:44:46;;;;;;;1.55;0.50;;;6.10;96.70;;;;;;4912967;29;20155;-71
2022/01/10 07:47:16;;;;;;;1.27;0.60;;;6.20;96.70;;;;;;4912096;29;20118;-71
2022/01/10 07:49:44;;;;;;;1.70;0.70;;;6.30;96.70;;;;;;4901404;29;20048;-71
2022/01/10 07:52:12;;;;;;;2.55;0.65;;;6.40;96.70;;;;;;4904358;29;20054;-71
2022/01/10 07:54:41;;;;;;;3.08;0.70;;;6.50;96.70;;;;;;4917378;29;20036;-71
2022/01/10 07:57:10;;;;;;;1.42;0.60;;;6.70;96.70;;;;;;4893831;29;20089;-71
2022/01/10 07:59:38;;;;;;;1.10;0.50;;;6.90;96.70;;;;;;4901462;29;20060;-71
2022/01/10 08:02:08;;;;;;;1.65;0.50;;;7.00;96.70;;;;;;4903287;29;20036;-70
2022/01/10 08:04:38;;;;;;;1.35;0.65;;;7.10;96.70;;;;;;4919182;29;20044;-71
2022/01/10 08:07:06;;;;;;;0.95;0.40;;;7.10;96.70;;;;;;4917125;29;20111;-71
2022/01/10 08:09:34;;;;;;;0.80;0.38;;;7.30;96.70;;;;;;4915981;29;20040;-70
2022/01/10 08:12:03;;;;;;;1.23;0.40;;;7.40;96.70;;;;;;4889602;29;20139;-71
2022/01/10 08:14:32;;;;;;;2.35;0.38;;;7.50;96.70;;;;;;4918182;29;20066;-70
2022/01/10 08:17:00;;;;;;;2.50;0.40;;;7.60;96.70;;;;;;4906754;29;20066;-72
2022/01/10 08:19:30;;;;;;;1.73;0.70;;;7.60;96.70;;;;;;4901967;29;20090;-72
2022/01/10 08:22:00;;;;;;;1.52;0.60;;;7.70;96.70;;;;;;4906303;29;20047;-73
2022/01/10 08:24:28;;;;;;;1.33;0.60;;;7.80;96.70;;;;;;4923067;29;20540;-70
2022/01/10 08:26:58;;;;;;;3.22;0.73;;;7.80;96.70;;;;;;4901489;29;20032;-71
2022/01/10 08:29:26;;;;;;;1.15;0.43;;;7.90;96.70;;;;;;4901439;29;20052;-74
2022/01/10 08:31:54;;;;;;;1.10;0.50;;;7.90;96.70;;;;;;4922940;29;20046;-74
2022/01/10 08:34:24;;;;;;;1.85;0.80;;;7.90;96.70;;;;;;4924103;29;20040;-71
2022/01/10 08:36:52;;;;;;;2.15;0.60;;;8.00;96.70;;;;;;4923153;29;20535;-72
2022/01/10 08:39:22;;;;;;;1.20;0.60;;;8.10;96.70;;;;;;4905346;29;20217;-71
2022/01/10 08:41:50;;;;;;;0.95;0.60;;;8.10;96.70;;;;;;4900849;29;21058;-71
2022/01/10 08:44:19;;;;;;;1.05;0.50;;;8.20;96.70;;;;;;4922651;29;20119;-72
2022/01/10 08:46:47;;;;;;;1.90;0.65;;;8.20;96.70;;;;;;4913548;29;20035;-71
2022/01/10 08:49:15;;;;;;;1.38;0.60;;;8.30;96.70;;;;;;4938291;29;20074;-71
2022/01/10 08:51:43;;;;;;;1.15;0.65;;;8.40;96.70;;;;;;4923689;29;20492;-71
2022/01/10 08:54:12;;;;;;;1.35;0.40;;;8.40;96.70;;;;;;4890413;29;20063;-71
2022/01/10 08:56:42;;;;;;;1.00;0.40;;;8.40;96.70;;;;;;4915368;29;20050;-73
2022/01/10 08:59:10;;;;;;;1.15;0.40;;;8.50;96.70;;;;;;4891425;29;20134;-74
2022/01/10 09:01:38;;;;;;;1.30;0.43;;;8.60;96.70;;;;;;4922170;29;20054;-72
2022/01/10 09:04:07;;;;;;;1.65;0.38;;;8.60;96.70;;;;;;4899867;29;20083;-73
2022/01/10 09:06:35;;;;;;;1.10;0.50;;;8.70;96.70;;;;;;4915618;29;20051;-73
2022/01/10 09:09:06;;;;;;;2.17;0.40;;;8.80;96.70;;;;;;4918943;29;20057;-73
2022/01/10 09:11:34;;;;;;;2.95;0.70;;;8.80;96.70;;;;;;4918294;29;20060;-73
2022/01/10 09:14:04;;;;;;;1.35;0.50;;;8.90;96.70;;;;;;4887849;29;20052;-73
2022/01/10 09:16:32;;;;;;;1.83;0.52;;;8.90;96.70;;;;;;4882751;29;20090;-73
2022/01/10 09:19:00;;;;;;;1.63;0.50;;;8.90;96.70;;;;;;4886637;29;20037;-73
2022/01/10 09:21:28;;;;;;;0.98;0.40;;;8.80;96.70;;;;;;4900254;29;20137;-72
2022/01/10 09:23:57;;;;;;;1.98;0.60;;;8.90;96.70;;;;;;4872228;29;20485;-73
2022/01/10 09:26:25;;;;;;;2.78;1.00;;;8.90;96.70;;;;;;4900655;29;20056;-73
2022/01/10 09:28:53;;;;;;;1.00;0.40;;;8.90;96.70;;;;;;4888487;29;20052;-73
2022/01/10 09:31:23;;;;;;;1.42;0.60;;;8.90;96.70;;;;;;4866526;29;20052;-71
2022/01/10 09:33:55;;;;;;;2.35;0.70;;;9.00;96.70;;;;;;4898456;29;20470;-71
2022/01/10 09:36:25;;;;;;;1.90;0.70;;;9.00;96.70;;;;;;4880863;29;20048;-71
2022/01/10 09:38:55;;;;;;;3.05;1.00;;;9.00;96.70;;;;;;4899099;29;20139;-72
2022/01/10 09:41:23;;;;;;;2.53;1.05;;;9.10;96.70;;;;;;4884046;29;20135;-71
2022/01/10 09:43:53;;;;;;;1.80;0.73;;;9.20;96.70;;;;;;4897216;29;20092;-72
2022/01/10 09:46:23;;;;;;;1.70;0.40;;;9.20;96.70;;;;;;4902962;29;20036;-72
2022/01/10 09:48:52;;;;;;;4.13;1.73;;;9.20;96.70;;;;;;4901693;29;20135;-71
2022/01/10 09:51:26;;;;;;;1.27;0.57;;;9.30;96.70;;;;;;4902025;29;20071;-71
2022/01/10 09:53:55;;;;;;;1.50;0.55;;;9.40;96.70;;;;;;4900699;29;20044;-71
2022/01/10 09:56:25;;;;;;;1.77;0.57;;;9.40;96.70;;;;;;4904101;29;20506;-71
2022/01/10 09:58:53;;;;;;;1.17;0.47;;;9.50;96.70;;;;;;4883452;29;20052;-71
2022/01/10 10:01:25;;;;;;;1.55;0.75;;;9.60;96.70;;;;;;4898783;29;20410;-71
2022/01/10 10:03:59;;;;;;;1.50;0.60;;;9.70;96.70;;;;;;4883697;29;20135;-71
2022/01/10 10:06:28;;;;;;;1.27;0.60;;;9.70;96.70;;;;;;4899748;29;20131;-71
2022/01/10 10:08:58;;;;;;;4.05;0.82;;;9.80;96.70;;;;;;4900783;29;20036;-71
2022/01/10 10:11:38;;;;;;;2.08;0.60;;;9.90;96.70;;;;;;4906459;29;20183;-71
2022/01/10 10:14:08;;;;;;;1.27;0.60;;;10.00;96.70;;;;;;4917397;29;20155;-71
2022/01/10 10:16:46;;;;;;;1.00;0.47;;;10.00;96.70;;;;;;4897442;29;20048;-71
2022/01/10 10:19:14;;;;;;;2.25;0.82;;;10.10;96.70;;;;;;4896638;29;20174;-70
2022/01/10 10:21:43;;;;;;;0.98;0.50;;;10.20;96.70;;;;;;4898788;29;20052;-71
2022/01/10 10:24:11;;;;;;;1.65;0.65;;;10.20;96.70;;;;;;4899780;29;20514;-71
2022/01/10 10:26:40;;;;;;;2.17;0.60;;;10.20;96.70;;;;;;4913606;29;20043;-71
2022/01/10 10:29:14;;;;;;;1.98;0.50;;;10.30;96.70;;;;;;4900359;29;20126;-71
2022/01/10 10:31:46;;;;;;;0.80;0.40;;;10.40;96.70;;;;;;4902581;29;20091;-71
2022/01/10 10:34:19;;;;;;;1.75;0.50;;;10.50;96.70;;;;;;4920986;29;20091;-71
2022/01/10 10:37:00;;;;;;;2.22;0.82;;;10.40;96.70;;;;;;4893982;29;20073;-72
2022/01/10 10:39:29;;;;;;;1.15;0.40;;;10.50;96.70;;;;;;4899478;29;20145;-71
2022/01/10 10:42:00;;;;;;;1.40;0.60;;;10.50;96.70;;;;;;4914664;29;20552;-71
2022/01/10 10:44:29;;;;;;;0.95;0.40;;;10.60;96.70;;;;;;4917019;29;20084;-71
2022/01/10 10:46:59;;;;;;;1.00;0.40;;;10.60;96.70;;;;;;4916834;29;21490;-71
2022/01/10 10:49:36;;;;;;;1.13;0.40;;;10.70;96.70;;;;;;4907051;29;20056;-71
2022/01/10 10:52:07;;;;;;;0.80;0.40;;;10.70;96.70;;;;;;4904887;29;20048;-71
2022/01/10 10:54:36;;;;;;;0.60;0.30;;;10.80;96.70;;;;;;4902354;29;20051;-71
2022/01/10 10:57:06;;;;;;;0.50;0.30;;;10.80;96.70;;;;;;4913016;29;20162;-71
2022/01/10 10:59:37;;;;;;;1.55;0.50;;;10.80;96.70;;;;;;4898340;29;20167;-71
2022/01/10 11:02:06;;;;;;;0.63;0.30;;;10.80;96.70;;;;;;4896375;29;20524;-71
2022/01/10 11:04:35;;;;;;;1.45;0.40;;;10.90;96.70;;;;;;4898034;29;20131;-71
2022/01/10 11:07:04;;;;;;;1.60;0.52;;;10.90;96.70;;;;;;4896824;29;20040;-71
2022/01/10 11:09:32;;;;;;;2.03;0.40;;;10.90;96.70;;;;;;4899649;29;20039;-71
2022/01/10 11:12:00;;;;;;;2.53;0.60;;;11.00;96.70;;;;;;4919557;29;20058;-71
2022/01/10 11:14:31;;;;;;;0.80;0.35;;;11.00;96.70;;;;;;4917129;29;20051;-70
2022/01/10 11:16:59;;;;;;;1.42;0.40;;;11.10;96.70;;;;;;4911984;29;20656;-71
2022/01/10 11:19:28;;;;;;;0.47;0.30;;;11.00;96.70;;;;;;4900447;29;20055;-71
2022/01/10 11:22:04;;;;;;;1.27;0.30;;;10.90;96.70;;;;;;4917023;29;20174;-71
2022/01/10 11:24:43;;;;;;;7.05;3.58;;;11.00;96.70;;;;;;4910003;29;20059;-71
2022/01/10 11:27:29;;;;;;;3.95;1.92;;;10.80;96.70;;;;;;4896965;29;20040;-71
2022/01/10 11:29:57;;;;;;;1.80;1.10;;;10.60;96.70;;;;;;4901300;29;20044;-71
2022/01/10 11:32:52;;;;;;;1.30;0.65;;;10.60;96.70;;;;;;4914294;29;20064;-71
2022/01/10 11:35:44;;;;;;;1.33;0.50;;;10.70;96.70;;;;;;4887403;29;21202;-71
2022/01/10 11:38:30;;;;;;;1.02;0.30;;;10.90;96.70;;;;;;4896397;29;20122;-71
2022/01/10 11:41:01;;;;;;;2.07;0.40;;;11.00;96.70;;;;;;4918802;29;20043;-71
2022/01/10 11:43:44;;;;;;;0.57;0.35;;;11.20;96.70;;;;;;4921464;29;20105;-71
2022/01/10 11:46:23;;;;;;;0.85;0.30;;;11.30;96.70;;;;;;4917082;29;20035;-71
2022/01/10 11:48:55;;;;;;;1.20;0.50;;;11.30;96.70;;;;;;4895890;29;20579;-71
2022/01/10 11:51:31;;;;;;;0.70;0.30;;;11.40;96.70;;;;;;4916718;29;20233;-72
2022/01/10 11:54:11;;;;;;;1.70;0.50;;;11.30;96.70;;;;;;4918527;29;20063;-72
2022/01/10 11:56:41;;;;;;;2.03;0.40;;;11.40;96.70;;;;;;4916947;29;20342;-71
2022/01/10 11:59:22;;;;;;;1.83;0.60;;;11.50;96.70;;;;;;4900459;29;20068;-71
2022/01/10 12:01:53;;;;;;;3.58;0.60;;;11.60;96.70;;;;;;4915565;29;20054;-71
2022/01/10 12:04:22;;;;;;;1.17;0.40;;;11.50;96.70;;;;;;4899750;29;20123;-71
2022/01/10 12:06:53;;;;;;;0.32;0.20;;;11.60;96.70;;;;;;4921093;29;20044;-71
2022/01/10 12:09:21;;;;;;;0.90;0.50;;;11.60;96.60;;;;;;4903967;29;20063;-72
2022/01/10 12:11:51;;;;;;;0.90;0.40;;;11.70;96.70;;;;;;4916087;29;20060;-72
2022/01/10 12:14:20;;;;;;;1.05;0.40;;;11.60;95.50;;;;;;4918989;29;20102;-71
2022/01/10 12:16:48;;;;;;;1.23;0.50;;;11.70;95.30;;;;;;4896858;29;20040;-71
2022/01/10 12:19:17;;;;;;;0.47;0.30;;;11.70;94.70;;;;;;4919004;29;20058;-71
2022/01/10 12:21:46;;;;;;;0.77;0.40;;;11.80;94.90;;;;;;4912702;29;20047;-72
2022/01/10 12:24:15;;;;;;;2.30;0.47;;;11.80;94.70;;;;;;4912797;29;20048;-71
2022/01/10 12:26:44;;;;;;;0.43;0.20;;;11.70;94.40;;;;;;4916330;29;20043;-71
2022/01/10 12:29:13;;;;;;;1.55;0.40;;;11.80;94.20;;;;;;4917785;29;20211;-71
2022/01/10 12:31:43;;;;;;;1.08;0.30;;;11.80;94.30;;;;;;4916339;29;20040;-71
2022/01/10 12:34:12;;;;;;;1.25;0.60;;;11.80;93.40;;;;;;4913440;29;20127;-72
2022/01/10 12:36:42;;;;;;;0.82;0.40;;;11.80;93.30;;;;;;4901414;29;20048;-72
2022/01/10 12:39:17;;;;;;;0.95;0.40;;;11.90;93.80;;;;;;4920328;29;20044;-71
2022/01/10 12:41:46;;;;;;;0.93;0.40;;;11.90;93.30;;;;;;4893988;29;20048;-71
2022/01/10 12:44:15;;;;;;;0.52;0.38;;;11.90;94.10;;;;;;4912785;29;20044;-72
2022/01/10 12:46:43;;;;;;;0.50;0.15;;;11.90;94.10;;;;;;4901501;29;20067;-72
2022/01/10 12:49:15;;;;;;;1.17;0.30;;;11.70;93.70;;;;;;4895640;29;20091;-72
2022/01/10 12:51:46;;;;;;;0.57;0.28;;;11.80;93.80;;;;;;4906384;29;20049;-72
2022/01/10 12:54:15;;;;;;;0.60;0.25;;;11.80;94.10;;;;;;4900008;29;20040;-71
2022/01/10 12:56:44;;;;;;;0.93;0.20;;;11.80;93.90;;;;;;4901226;29;20051;-72
2022/01/10 12:59:15;;;;;;;0.85;0.20;;;11.80;93.70;;;;;;4918432;29;20305;-71
2022/01/10 13:01:44;;;;;;;0.50;0.20;;;11.80;93.60;;;;;;4911386;29;20250;-71
2022/01/10 13:04:13;;;;;;;0.82;0.22;;;11.80;94.10;;;;;;4917850;29;20040;-71
2022/01/10 13:06:45;;;;;;;0.35;0.10;;;11.90;93.90;;;;;;4917065;29;20040;-71
2022/01/10 13:09:14;;;;;;;0.32;0.20;;;11.90;94.10;;;;;;4915155;29;20532;-71
2022/01/10 13:11:44;;;;;;;1.25;0.35;;;11.90;93.60;;;;;;4920721;29;20060;-71
2022/01/10 13:14:15;;;;;;;0.68;0.40;;;11.90;93.20;;;;;;4912687;29;20036;-72
2022/01/10 13:16:44;;;;;;;2.03;0.55;;;12.00;93.80;;;;;;4907122;29;20051;-72
2022/01/10 13:19:13;;;;;;;1.15;0.40;;;11.90;93.10;;;;;;4917830;29;20055;-71
2022/01/10 13:21:47;;;;;;;0.57;0.30;;;11.90;92.90;;;;;;4916981;29;20070;-71